HISTORICAL SENSOR DATA

Sensor Data Report

DB LIVE
CURRENT TIME--:--:--
DEVICE NETWORK Gateway Status
13 ESP · realtime ~1s · history 60s
Weather WS-MOD-01
OFFLINE
Actuator ACT-MOD-01
OFFLINE
Mainboard L3 MB-L3-01
ONLINE
Mainboard L5 MB-L5-01
OFFLINE
Remote AC AC-REMOTE-01
OFFLINE
PZEM L3-01 PWR-L3-01
OFFLINE
PZEM L3-02 PWR-L3-02
OFFLINE
PZEM L3-03 PWR-L3-03
OFFLINE
PZEM L3-04 PWR-L3-04
OFFLINE
PZEM L5-01 PWR-L5-01
OFFLINE
PZEM L5-02 PWR-L5-02
WARNING
PZEM L5-03 PWR-L5-03
OFFLINE
PZEM L5-04 PWR-L5-04
OFFLINE
REPORT FILTER

Periode & Sensor

DATABASE HISTORY
RESET
QUICK RANGE Hari ini 7 hari 30 hari
PERIODE08 Aug 2026sampai 06 Sep 2026
TOTAL DATA50,421sensor readings
MINIMUM-0.50sesuai filter
AVERAGE95.36sesuai filter
MAXIMUM32,564.20sesuai filter
REPORT RESULT

Data Sensor

08/08/2026 — 06/09/2026 EXPORT CSV
NOTANGGALWAKTUDEVICECHANNELSENSORVALUEUNIT
2601 06/09/2026 18:06:00 MB-L3-01Mainboard Lantai 3 L3-LUX-03 Illuminance / LUX 3 738.50 lux
2602 06/09/2026 18:06:00 MB-L3-01Mainboard Lantai 3 L3-LUX-06 Illuminance / LUX 6 542.90 lux
2603 06/09/2026 18:06:00 MB-L3-01Mainboard Lantai 3 L3-AI-03 Analog Input 3 3.12 V
2604 06/09/2026 18:06:00 MB-L3-01Mainboard Lantai 3 L3-RAD-01 Radiation 1 1.00 W/m²
2605 06/09/2026 18:06:00 MB-L3-01Mainboard Lantai 3 L3-SHT-01-RH SHT20 1 Humidity 41.80 %RH
2606 06/09/2026 18:06:00 MB-L3-01Mainboard Lantai 3 L3-LUX-01 Illuminance / LUX 1 505.40 lux
2607 06/09/2026 18:06:00 MB-L3-01Mainboard Lantai 3 L3-SHT-03-RH SHT20 3 Humidity 41.70 %RH
2608 06/09/2026 18:06:00 MB-L3-01Mainboard Lantai 3 L3-SHT-02-T SHT20 2 Temperature 29.90 °C
2609 06/09/2026 18:06:00 MB-L3-01Mainboard Lantai 3 L3-LUX-02 Illuminance / LUX 2 618.60 lux
2610 06/09/2026 18:06:00 MB-L3-01Mainboard Lantai 3 L3-AI-04 Analog Input 4 3.12 V
2611 06/09/2026 18:06:00 MB-L3-01Mainboard Lantai 3 L3-LUX-04 Illuminance / LUX 4 589.50 lux
2612 06/09/2026 18:06:00 MB-L3-01Mainboard Lantai 3 L3-SHT-02-RH SHT20 2 Humidity 41.30 %RH
2613 06/09/2026 18:05:00 MB-L3-01Mainboard Lantai 3 L3-SHT-03-T SHT20 3 Temperature 29.80 °C
2614 06/09/2026 18:05:00 MB-L3-01Mainboard Lantai 3 L3-AI-02 Analog Input 2 3.12 V
2615 06/09/2026 18:05:00 MB-L3-01Mainboard Lantai 3 L3-AI-06 Analog Input 6 3.12 V
2616 06/09/2026 18:05:00 MB-L3-01Mainboard Lantai 3 L3-LUX-03 Illuminance / LUX 3 738.40 lux
2617 06/09/2026 18:05:00 MB-L3-01Mainboard Lantai 3 L3-LUX-06 Illuminance / LUX 6 543.30 lux
2618 06/09/2026 18:05:00 MB-L3-01Mainboard Lantai 3 L3-AI-03 Analog Input 3 3.12 V
2619 06/09/2026 18:05:00 MB-L3-01Mainboard Lantai 3 L3-RAD-01 Radiation 1 1.00 W/m²
2620 06/09/2026 18:05:00 MB-L3-01Mainboard Lantai 3 L3-SHT-01-RH SHT20 1 Humidity 41.80 %RH
2621 06/09/2026 18:05:00 MB-L3-01Mainboard Lantai 3 L3-LUX-01 Illuminance / LUX 1 505.90 lux
2622 06/09/2026 18:05:00 MB-L3-01Mainboard Lantai 3 L3-SHT-03-RH SHT20 3 Humidity 41.80 %RH
2623 06/09/2026 18:05:00 MB-L3-01Mainboard Lantai 3 L3-SHT-02-T SHT20 2 Temperature 29.90 °C
2624 06/09/2026 18:05:00 MB-L3-01Mainboard Lantai 3 L3-LUX-02 Illuminance / LUX 2 619.30 lux
2625 06/09/2026 18:05:00 MB-L3-01Mainboard Lantai 3 L3-AI-04 Analog Input 4 3.12 V
2626 06/09/2026 18:05:00 MB-L3-01Mainboard Lantai 3 L3-LUX-04 Illuminance / LUX 4 589.80 lux
2627 06/09/2026 18:05:00 MB-L3-01Mainboard Lantai 3 L3-SHT-02-RH SHT20 2 Humidity 41.30 %RH
2628 06/09/2026 18:05:00 MB-L3-01Mainboard Lantai 3 L3-RAD-02 Radiation 2 1.00 W/m²
2629 06/09/2026 18:05:00 MB-L3-01Mainboard Lantai 3 L3-LUX-05 Illuminance / LUX 5 394.10 lux
2630 06/09/2026 18:05:00 MB-L3-01Mainboard Lantai 3 L3-SHT-01-T SHT20 1 Temperature 29.60 °C
2631 06/09/2026 18:05:00 MB-L3-01Mainboard Lantai 3 L3-AI-01 Analog Input 1 3.12 V
2632 06/09/2026 18:05:00 MB-L3-01Mainboard Lantai 3 L3-AI-05 Analog Input 5 3.12 V
2633 06/09/2026 18:04:00 MB-L3-01Mainboard Lantai 3 L3-AI-06 Analog Input 6 3.12 V
2634 06/09/2026 18:04:00 MB-L3-01Mainboard Lantai 3 L3-LUX-03 Illuminance / LUX 3 739.00 lux
2635 06/09/2026 18:04:00 MB-L3-01Mainboard Lantai 3 L3-LUX-06 Illuminance / LUX 6 543.80 lux
2636 06/09/2026 18:04:00 MB-L3-01Mainboard Lantai 3 L3-AI-03 Analog Input 3 3.12 V
2637 06/09/2026 18:04:00 MB-L3-01Mainboard Lantai 3 L3-RAD-01 Radiation 1 1.00 W/m²
2638 06/09/2026 18:04:00 MB-L3-01Mainboard Lantai 3 L3-SHT-01-RH SHT20 1 Humidity 42.00 %RH
2639 06/09/2026 18:04:00 MB-L3-01Mainboard Lantai 3 L3-LUX-01 Illuminance / LUX 1 506.10 lux
2640 06/09/2026 18:04:00 MB-L3-01Mainboard Lantai 3 L3-SHT-03-RH SHT20 3 Humidity 41.70 %RH
2641 06/09/2026 18:04:00 MB-L3-01Mainboard Lantai 3 L3-SHT-02-T SHT20 2 Temperature 29.90 °C
2642 06/09/2026 18:04:00 MB-L3-01Mainboard Lantai 3 L3-LUX-02 Illuminance / LUX 2 618.40 lux
2643 06/09/2026 18:04:00 MB-L3-01Mainboard Lantai 3 L3-AI-04 Analog Input 4 3.12 V
2644 06/09/2026 18:04:00 MB-L3-01Mainboard Lantai 3 L3-LUX-04 Illuminance / LUX 4 590.00 lux
2645 06/09/2026 18:04:00 MB-L3-01Mainboard Lantai 3 L3-SHT-02-RH SHT20 2 Humidity 41.30 %RH
2646 06/09/2026 18:04:00 MB-L3-01Mainboard Lantai 3 L3-RAD-02 Radiation 2 1.00 W/m²
2647 06/09/2026 18:04:00 MB-L3-01Mainboard Lantai 3 L3-LUX-05 Illuminance / LUX 5 394.60 lux
2648 06/09/2026 18:04:00 MB-L3-01Mainboard Lantai 3 L3-SHT-01-T SHT20 1 Temperature 29.70 °C
2649 06/09/2026 18:04:00 MB-L3-01Mainboard Lantai 3 L3-AI-01 Analog Input 1 3.12 V
2650 06/09/2026 18:04:00 MB-L3-01Mainboard Lantai 3 L3-AI-05 Analog Input 5 3.12 V
2651 06/09/2026 18:04:00 MB-L3-01Mainboard Lantai 3 L3-SHT-03-T SHT20 3 Temperature 29.80 °C
2652 06/09/2026 18:04:00 MB-L3-01Mainboard Lantai 3 L3-AI-02 Analog Input 2 3.12 V
2653 06/09/2026 18:03:00 MB-L3-01Mainboard Lantai 3 L3-SHT-03-RH SHT20 3 Humidity 41.70 %RH
2654 06/09/2026 18:03:00 MB-L3-01Mainboard Lantai 3 L3-SHT-02-T SHT20 2 Temperature 29.90 °C
2655 06/09/2026 18:03:00 MB-L3-01Mainboard Lantai 3 L3-LUX-02 Illuminance / LUX 2 620.20 lux
2656 06/09/2026 18:03:00 MB-L3-01Mainboard Lantai 3 L3-AI-04 Analog Input 4 3.12 V
2657 06/09/2026 18:03:00 MB-L3-01Mainboard Lantai 3 L3-LUX-04 Illuminance / LUX 4 590.40 lux
2658 06/09/2026 18:03:00 MB-L3-01Mainboard Lantai 3 L3-SHT-02-RH SHT20 2 Humidity 41.30 %RH
2659 06/09/2026 18:03:00 MB-L3-01Mainboard Lantai 3 L3-RAD-02 Radiation 2 1.00 W/m²
2660 06/09/2026 18:03:00 MB-L3-01Mainboard Lantai 3 L3-LUX-05 Illuminance / LUX 5 395.40 lux
2661 06/09/2026 18:03:00 MB-L3-01Mainboard Lantai 3 L3-SHT-01-T SHT20 1 Temperature 29.70 °C
2662 06/09/2026 18:03:00 MB-L3-01Mainboard Lantai 3 L3-AI-01 Analog Input 1 3.12 V
2663 06/09/2026 18:03:00 MB-L3-01Mainboard Lantai 3 L3-AI-05 Analog Input 5 3.12 V
2664 06/09/2026 18:03:00 MB-L3-01Mainboard Lantai 3 L3-SHT-03-T SHT20 3 Temperature 29.90 °C
2665 06/09/2026 18:03:00 MB-L3-01Mainboard Lantai 3 L3-AI-02 Analog Input 2 3.12 V
2666 06/09/2026 18:03:00 MB-L3-01Mainboard Lantai 3 L3-AI-06 Analog Input 6 3.12 V
2667 06/09/2026 18:03:00 MB-L3-01Mainboard Lantai 3 L3-LUX-03 Illuminance / LUX 3 739.60 lux
2668 06/09/2026 18:03:00 MB-L3-01Mainboard Lantai 3 L3-LUX-06 Illuminance / LUX 6 543.50 lux
2669 06/09/2026 18:03:00 MB-L3-01Mainboard Lantai 3 L3-AI-03 Analog Input 3 3.12 V
2670 06/09/2026 18:03:00 MB-L3-01Mainboard Lantai 3 L3-RAD-01 Radiation 1 1.00 W/m²
2671 06/09/2026 18:03:00 MB-L3-01Mainboard Lantai 3 L3-SHT-01-RH SHT20 1 Humidity 42.00 %RH
2672 06/09/2026 18:03:00 MB-L3-01Mainboard Lantai 3 L3-LUX-01 Illuminance / LUX 1 506.30 lux
2673 06/09/2026 18:02:00 MB-L3-01Mainboard Lantai 3 L3-AI-04 Analog Input 4 3.12 V
2674 06/09/2026 18:02:00 MB-L3-01Mainboard Lantai 3 L3-LUX-04 Illuminance / LUX 4 590.80 lux
2675 06/09/2026 18:02:00 MB-L3-01Mainboard Lantai 3 L3-SHT-02-RH SHT20 2 Humidity 41.20 %RH
2676 06/09/2026 18:02:00 MB-L3-01Mainboard Lantai 3 L3-RAD-02 Radiation 2 1.00 W/m²
2677 06/09/2026 18:02:00 MB-L3-01Mainboard Lantai 3 L3-LUX-05 Illuminance / LUX 5 396.20 lux
2678 06/09/2026 18:02:00 MB-L3-01Mainboard Lantai 3 L3-SHT-01-T SHT20 1 Temperature 29.70 °C
2679 06/09/2026 18:02:00 MB-L3-01Mainboard Lantai 3 L3-AI-01 Analog Input 1 3.12 V
2680 06/09/2026 18:02:00 MB-L3-01Mainboard Lantai 3 L3-AI-05 Analog Input 5 3.12 V
2681 06/09/2026 18:02:00 MB-L3-01Mainboard Lantai 3 L3-SHT-03-T SHT20 3 Temperature 29.90 °C
2682 06/09/2026 18:02:00 MB-L3-01Mainboard Lantai 3 L3-AI-02 Analog Input 2 3.12 V
2683 06/09/2026 18:02:00 MB-L3-01Mainboard Lantai 3 L3-AI-06 Analog Input 6 3.12 V
2684 06/09/2026 18:02:00 MB-L3-01Mainboard Lantai 3 L3-LUX-03 Illuminance / LUX 3 740.00 lux
2685 06/09/2026 18:02:00 MB-L3-01Mainboard Lantai 3 L3-LUX-06 Illuminance / LUX 6 544.40 lux
2686 06/09/2026 18:02:00 MB-L3-01Mainboard Lantai 3 L3-AI-03 Analog Input 3 3.12 V
2687 06/09/2026 18:02:00 MB-L3-01Mainboard Lantai 3 L3-RAD-01 Radiation 1 1.00 W/m²
2688 06/09/2026 18:02:00 MB-L3-01Mainboard Lantai 3 L3-SHT-01-RH SHT20 1 Humidity 41.90 %RH
2689 06/09/2026 18:02:00 MB-L3-01Mainboard Lantai 3 L3-LUX-01 Illuminance / LUX 1 506.50 lux
2690 06/09/2026 18:02:00 MB-L3-01Mainboard Lantai 3 L3-SHT-03-RH SHT20 3 Humidity 41.70 %RH
2691 06/09/2026 18:02:00 MB-L3-01Mainboard Lantai 3 L3-SHT-02-T SHT20 2 Temperature 29.90 °C
2692 06/09/2026 18:02:00 MB-L3-01Mainboard Lantai 3 L3-LUX-02 Illuminance / LUX 2 620.60 lux
2693 06/09/2026 18:01:00 MB-L3-01Mainboard Lantai 3 L3-AI-05 Analog Input 5 3.12 V
2694 06/09/2026 18:01:00 MB-L3-01Mainboard Lantai 3 L3-SHT-03-T SHT20 3 Temperature 29.90 °C
2695 06/09/2026 18:01:00 MB-L3-01Mainboard Lantai 3 L3-AI-02 Analog Input 2 3.12 V
2696 06/09/2026 18:01:00 MB-L3-01Mainboard Lantai 3 L3-AI-06 Analog Input 6 3.12 V
2697 06/09/2026 18:01:00 MB-L3-01Mainboard Lantai 3 L3-LUX-03 Illuminance / LUX 3 740.20 lux
2698 06/09/2026 18:01:00 MB-L3-01Mainboard Lantai 3 L3-LUX-06 Illuminance / LUX 6 546.10 lux
2699 06/09/2026 18:01:00 MB-L3-01Mainboard Lantai 3 L3-AI-03 Analog Input 3 3.12 V
2700 06/09/2026 18:01:00 MB-L3-01Mainboard Lantai 3 L3-RAD-01 Radiation 1 1.00 W/m²
Menampilkan maksimal 100 data per halaman